Time;durP1;ratioP1;P1;durP2;ratioP2;P2;SDS_P1;SDS_P2;PMS_P1;PMS_P2;Temp;Humidity;BMP_temperature;BMP_pressure;BME280_temperature;BME280_humidity;BME280_pressure;Samples;Min_cycle;Max_cycle;Signal;HPM_P1;HPM_P2
2021/05/30 00:02:23;;;;;;;45.72;25.42;;;10.40;99.90;;;;;;5028871;28;20036;-61
2021/05/30 00:04:48;;;;;;;40.00;23.25;;;10.40;99.90;;;;;;5028497;28;20036;-57
2021/05/30 00:07:14;;;;;;;49.85;26.38;;;10.30;99.90;;;;;;5023165;28;20026;-58
2021/05/30 00:09:40;;;;;;;43.67;24.30;;;10.30;99.90;;;;;;5029289;28;20372;-57
2021/05/30 00:12:08;;;;;;;48.00;28.42;;;10.20;99.90;;;;;;5029621;28;20032;-58
2021/05/30 00:14:33;;;;;;;52.78;26.92;;;10.10;99.90;;;;;;5028550;28;20065;-56
2021/05/30 00:16:59;;;;;;;43.95;24.63;;;10.10;99.90;;;;;;5029182;28;20525;-58
2021/05/30 00:19:25;;;;;;;46.92;26.15;;;10.10;99.90;;;;;;5027215;28;20120;-60
2021/05/30 00:21:50;;;;;;;45.58;26.10;;;10.10;99.90;;;;;;5028439;28;20487;-60
2021/05/30 00:24:16;;;;;;;47.47;25.50;;;10.10;99.90;;;;;;5027893;28;20048;-59
2021/05/30 00:26:41;;;;;;;49.95;25.75;;;10.00;99.90;;;;;;5027295;28;20395;-55
2021/05/30 00:29:07;;;;;;;43.90;25.88;;;9.90;99.90;;;;;;5028648;28;20057;-54
2021/05/30 00:31:33;;;;;;;41.38;25.17;;;9.90;99.90;;;;;;5028794;28;20034;-60
2021/05/30 00:33:59;;;;;;;51.03;25.52;;;9.90;99.90;;;;;;5028248;28;20112;-58
2021/05/30 00:36:25;;;;;;;46.53;25.88;;;9.80;99.90;;;;;;5032463;28;20037;-57
2021/05/30 00:38:50;;;;;;;46.88;26.77;;;9.90;99.90;;;;;;5032623;28;20545;-57
2021/05/30 00:41:16;;;;;;;46.08;26.83;;;9.80;99.90;;;;;;5032756;28;20071;-60
2021/05/30 00:43:49;;;;;;;45.15;26.05;;;9.80;99.90;;;;;;5030463;28;20536;-59
2021/05/30 00:46:15;;;;;;;44.07;24.73;;;9.80;99.90;;;;;;5035187;28;20058;-58
2021/05/30 00:48:41;;;;;;;50.83;26.15;;;9.70;99.90;;;;;;5033508;28;20456;-58
2021/05/30 00:51:07;;;;;;;47.72;26.23;;;9.70;99.90;;;;;;5032659;28;20087;-53
2021/05/30 00:53:35;;;;;;;47.15;25.42;;;9.70;99.90;;;;;;5031821;28;20495;-59
2021/05/30 00:56:08;;;;;;;50.05;27.55;;;9.70;99.90;;;;;;5033087;28;20052;-58
2021/05/30 00:58:34;;;;;;;44.88;26.08;;;9.70;99.90;;;;;;5033033;28;20036;-59
2021/05/30 01:01:00;;;;;;;51.70;27.67;;;9.60;99.90;;;;;;5033629;28;20116;-55
2021/05/30 01:03:26;;;;;;;44.38;24.80;;;9.60;99.90;;;;;;5032089;28;20044;-55
2021/05/30 01:05:52;;;;;;;46.50;25.70;;;9.60;99.90;;;;;;5032525;28;20029;-57
2021/05/30 01:08:26;;;;;;;46.10;27.15;;;9.60;99.90;;;;;;5032119;28;20025;-58
2021/05/30 01:10:54;;;;;;;40.75;24.58;;;9.50;99.90;;;;;;5032151;28;20116;-60
2021/05/30 01:13:20;;;;;;;57.42;27.25;;;9.50;99.90;;;;;;5032490;28;20029;-56
2021/05/30 01:15:47;;;;;;;52.33;25.98;;;9.50;99.90;;;;;;5032304;28;20037;-58
2021/05/30 01:18:22;;;;;;;58.63;27.50;;;9.40;99.90;;;;;;5008888;28;20030;-57
2021/05/30 01:20:49;;;;;;;50.72;27.23;;;9.40;99.90;;;;;;5032001;28;20033;-60
2021/05/30 01:23:16;;;;;;;50.38;27.90;;;9.40;99.90;;;;;;5031791;28;20033;-57
2021/05/30 01:25:42;;;;;;;50.38;27.42;;;9.40;99.90;;;;;;5031308;28;20029;-59
2021/05/30 01:28:08;;;;;;;52.20;27.48;;;9.40;99.90;;;;;;5031892;28;20040;-60
2021/05/30 01:30:35;;;;;;;51.38;26.70;;;9.30;99.90;;;;;;5032230;28;20126;-59
2021/05/30 01:33:02;;;;;;;45.50;26.70;;;9.30;99.90;;;;;;5031661;28;20052;-60
2021/05/30 01:35:27;;;;;;;52.97;27.25;;;9.30;99.90;;;;;;5031940;28;20034;-59
2021/05/30 01:37:53;;;;;;;49.55;27.95;;;9.20;99.90;;;;;;5031901;28;20103;-57
2021/05/30 01:40:20;;;;;;;54.33;27.92;;;9.20;99.90;;;;;;5031785;28;20022;-60
2021/05/30 01:42:48;;;;;;;52.10;29.40;;;9.20;99.90;;;;;;5030569;28;20552;-60
2021/05/30 01:45:18;;;;;;;54.30;28.98;;;9.20;99.90;;;;;;5031663;28;20045;-60
2021/05/30 01:47:45;;;;;;;47.92;27.00;;;9.20;99.90;;;;;;5029686;28;20047;-60
2021/05/30 01:50:16;;;;;;;55.75;29.08;;;9.10;99.90;;;;;;5030179;28;20124;-56
2021/05/30 01:52:42;;;;;;;48.15;27.75;;;9.10;99.90;;;;;;5030800;28;20506;-60
2021/05/30 01:55:17;;;;;;;53.35;27.17;;;9.10;99.90;;;;;;5031379;28;20055;-59
2021/05/30 01:57:47;;;;;;;51.08;26.90;;;9.10;99.90;;;;;;5031908;28;20394;-58
2021/05/30 02:00:15;;;;;;;48.22;27.98;;;9.20;99.90;;;;;;5033924;28;20034;-58
2021/05/30 02:02:43;;;;;;;47.47;26.58;;;9.10;99.90;;;;;;5029084;28;20025;-58
2021/05/30 02:05:10;;;;;;;51.17;27.45;;;9.00;99.90;;;;;;5031493;28;20025;-57
2021/05/30 02:07:38;;;;;;;47.70;27.80;;;9.00;99.90;;;;;;5031465;28;20063;-59
2021/05/30 02:10:04;;;;;;;51.47;26.60;;;8.90;99.90;;;;;;5040072;28;20499;-59
2021/05/30 02:12:31;;;;;;;49.58;26.02;;;8.90;99.90;;;;;;5031287;28;20021;-58
2021/05/30 02:14:57;;;;;;;50.80;28.00;;;8.80;99.90;;;;;;5031700;28;20026;-57
2021/05/30 02:17:24;;;;;;;52.00;24.95;;;8.80;99.90;;;;;;5030907;28;20544;-58
2021/05/30 02:19:49;;;;;;;45.17;24.85;;;8.80;99.90;;;;;;5031309;28;20467;-57
2021/05/30 02:22:15;;;;;;;49.00;26.85;;;8.80;99.90;;;;;;5030774;28;20053;-60
2021/05/30 02:24:45;;;;;;;43.05;25.00;;;8.80;99.90;;;;;;5030321;28;20049;-55
2021/05/30 02:27:12;;;;;;;52.22;27.88;;;8.70;99.90;;;;;;5031169;28;20108;-57
2021/05/30 02:29:41;;;;;;;53.47;27.40;;;8.70;99.90;;;;;;5016477;28;20029;-57
2021/05/30 02:32:08;;;;;;;50.47;26.77;;;8.70;99.90;;;;;;5030571;28;20065;-61
2021/05/30 02:34:35;;;;;;;47.17;25.95;;;8.70;99.90;;;;;;5029519;28;20033;-59
2021/05/30 02:37:01;;;;;;;55.35;27.77;;;8.60;99.90;;;;;;5030724;28;20029;-58
2021/05/30 02:39:27;;;;;;;46.15;26.52;;;8.60;99.90;;;;;;5030582;28;20033;-58
2021/05/30 02:41:53;;;;;;;52.58;27.75;;;8.60;99.90;;;;;;5031182;28;20101;-55
2021/05/30 02:44:18;;;;;;;53.92;27.45;;;8.60;99.90;;;;;;5030837;28;20112;-59
2021/05/30 02:46:44;;;;;;;52.10;26.80;;;8.60;99.90;;;;;;5030442;28;20030;-52
2021/05/30 02:49:10;;;;;;;51.17;27.20;;;8.50;99.90;;;;;;5028220;28;20025;-60
2021/05/30 02:51:35;;;;;;;47.42;25.98;;;8.50;99.90;;;;;;5031037;28;20034;-58
2021/05/30 02:54:01;;;;;;;56.17;28.40;;;8.50;99.90;;;;;;5029319;28;20025;-57
2021/05/30 02:56:27;;;;;;;59.13;27.15;;;8.50;99.90;;;;;;5030393;28;20483;-59
2021/05/30 02:58:53;;;;;;;53.72;28.08;;;8.40;99.90;;;;;;5029592;28;20419;-59
2021/05/30 03:01:19;;;;;;;49.92;26.90;;;8.50;99.90;;;;;;5030534;28;20068;-56
2021/05/30 03:03:45;;;;;;;48.20;27.27;;;8.40;99.90;;;;;;5030274;28;20026;-60
2021/05/30 03:06:11;;;;;;;51.30;27.73;;;8.30;99.90;;;;;;5030230;28;20034;-60
2021/05/30 03:08:36;;;;;;;52.35;28.00;;;8.30;99.90;;;;;;5030279;28;20052;-59
2021/05/30 03:11:02;;;;;;;47.97;25.75;;;8.20;99.90;;;;;;5029959;28;20068;-60
2021/05/30 03:13:27;;;;;;;50.92;27.48;;;8.30;99.90;;;;;;5028942;28;20034;-60
2021/05/30 03:15:53;;;;;;;51.33;27.73;;;8.30;99.90;;;;;;5036715;28;20033;-60
2021/05/30 03:18:18;;;;;;;44.97;25.15;;;8.40;99.90;;;;;;5030413;28;20079;-59
2021/05/30 03:20:44;;;;;;;48.65;25.27;;;8.30;99.90;;;;;;5029326;28;20039;-60
2021/05/30 03:23:10;;;;;;;46.03;25.40;;;8.30;99.90;;;;;;5030502;28;20022;-59
2021/05/30 03:25:36;;;;;;;48.00;28.48;;;8.20;99.90;;;;;;5030369;28;20025;-59
2021/05/30 03:28:03;;;;;;;47.97;25.40;;;8.20;99.90;;;;;;5029871;28;20041;-60
2021/05/30 03:30:28;;;;;;;47.03;27.27;;;8.20;99.90;;;;;;5012472;28;20029;-60
2021/05/30 03:32:54;;;;;;;47.25;25.63;;;8.20;99.90;;;;;;5011541;28;20088;-59
2021/05/30 03:35:23;;;;;;;47.47;27.35;;;8.20;99.90;;;;;;5031220;28;20455;-57
2021/05/30 03:37:49;;;;;;;46.60;25.50;;;8.20;99.90;;;;;;5012203;28;20022;-60
2021/05/30 03:41:01;;;;;;;49.70;26.73;;;8.20;99.90;;;;;;5030776;28;20025;-58
2021/05/30 03:43:04;;;;;;;46.03;24.75;;;8.20;99.90;;;;;;5019207;28;20064;-58
2021/05/30 03:45:30;;;;;;;48.65;25.30;;;8.10;99.90;;;;;;5029750;28;20053;-58
2021/05/30 03:47:55;;;;;;;49.78;27.15;;;8.10;99.90;;;;;;5014427;28;20029;-59
2021/05/30 03:50:21;;;;;;;48.08;26.58;;;8.10;99.90;;;;;;5028427;28;20045;-59
2021/05/30 03:52:46;;;;;;;46.35;26.25;;;8.10;99.90;;;;;;5022662;28;20033;-59
2021/05/30 03:55:13;;;;;;;44.97;25.73;;;8.10;99.90;;;;;;5030470;28;20108;-60
2021/05/30 03:57:39;;;;;;;49.03;28.50;;;8.20;99.90;;;;;;5030344;28;20026;-59
2021/05/30 04:00:14;;;;;;;49.80;27.35;;;8.20;99.90;;;;;;5027475;28;20034;-60
2021/05/30 04:02:40;;;;;;;50.85;27.55;;;8.20;99.90;;;;;;5029109;28;20057;-59
2021/05/30 04:05:06;;;;;;;44.80;26.33;;;8.20;99.90;;;;;;5029956;28;20060;-60
2021/05/30 04:07:33;;;;;;;51.58;27.50;;;8.20;99.90;;;;;;5029161;28;20514;-59
2021/05/30 04:10:03;;;;;;;45.92;25.38;;;8.20;99.90;;;;;;5025448;28;20577;-58
2021/05/30 04:12:29;;;;;;;48.83;26.38;;;8.20;99.90;;;;;;5025419;28;20475;-57
2021/05/30 04:14:55;;;;;;;44.83;26.25;;;8.30;99.90;;;;;;5027977;28;20105;-59
2021/05/30 04:17:20;;;;;;;43.45;25.85;;;8.30;99.90;;;;;;5028270;28;20547;-59
2021/05/30 04:19:46;;;;;;;52.72;26.83;;;8.30;99.90;;;;;;5005733;28;20037;-60
2021/05/30 04:22:11;;;;;;;48.20;27.13;;;8.30;99.90;;;;;;5025370;28;20033;-58
2021/05/30 04:24:37;;;;;;;50.03;27.98;;;8.30;99.90;;;;;;5022126;28;20026;-59
2021/05/30 04:27:03;;;;;;;52.00;28.05;;;8.30;99.90;;;;;;5008663;28;20017;-60
2021/05/30 04:29:28;;;;;;;52.00;27.55;;;8.40;99.90;;;;;;5027116;28;20041;-60
2021/05/30 04:31:54;;;;;;;50.08;28.52;;;8.50;99.90;;;;;;5026062;28;20034;-59
2021/05/30 04:34:19;;;;;;;46.35;26.67;;;8.40;99.90;;;;;;5029183;28;20076;-60
2021/05/30 04:36:45;;;;;;;48.55;26.63;;;8.50;99.90;;;;;;5029094;28;20030;-60
2021/05/30 04:39:11;;;;;;;47.25;27.05;;;8.60;99.90;;;;;;5028983;28;20120;-60
2021/05/30 04:41:36;;;;;;;49.58;25.67;;;8.70;99.90;;;;;;5029128;28;20080;-57
2021/05/30 04:44:02;;;;;;;45.58;26.67;;;8.80;99.90;;;;;;5033803;28;20021;-59
2021/05/30 04:46:27;;;;;;;46.38;26.50;;;8.80;99.90;;;;;;5029883;28;20399;-60
2021/05/30 04:48:53;;;;;;;49.65;28.50;;;8.90;99.90;;;;;;5028981;28;20108;-58
2021/05/30 04:51:18;;;;;;;47.35;27.30;;;8.90;99.90;;;;;;5025891;28;20033;-60
2021/05/30 04:53:46;;;;;;;46.92;27.00;;;9.00;99.90;;;;;;5024626;28;20470;-54
2021/05/30 04:56:17;;;;;;;48.10;24.48;;;9.00;99.90;;;;;;5029084;28;20481;-56
2021/05/30 04:58:43;;;;;;;45.20;27.25;;;9.10;99.90;;;;;;5029489;28;20045;-58
2021/05/30 05:01:09;;;;;;;55.85;27.55;;;9.10;99.90;;;;;;5030635;28;20017;-60
2021/05/30 05:03:35;;;;;;;49.88;26.27;;;9.10;99.90;;;;;;5010985;28;20040;-60
2021/05/30 05:06:01;;;;;;;46.58;27.17;;;9.20;99.90;;;;;;5029133;28;20506;-59
2021/05/30 05:08:26;;;;;;;42.97;25.27;;;9.30;99.90;;;;;;5028651;28;20028;-58
2021/05/30 05:10:53;;;;;;;47.15;26.00;;;9.40;99.90;;;;;;5029212;28;20033;-58
2021/05/30 05:13:19;;;;;;;48.60;25.98;;;9.50;99.90;;;;;;5029192;28;20033;-60
2021/05/30 05:15:49;;;;;;;43.72;25.42;;;9.50;99.90;;;;;;5029232;28;20034;-60
2021/05/30 05:18:17;;;;;;;45.45;25.17;;;9.60;99.90;;;;;;5029925;28;20113;-56
2021/05/30 05:20:43;;;;;;;44.75;25.15;;;9.70;99.90;;;;;;5028572;28;20025;-58
2021/05/30 05:23:12;;;;;;;42.17;25.15;;;9.80;99.90;;;;;;5031274;28;20431;-60
2021/05/30 05:25:38;;;;;;;43.67;26.05;;;9.90;99.90;;;;;;5028747;28;20021;-58
2021/05/30 05:28:04;;;;;;;44.10;24.25;;;10.00;99.90;;;;;;5032593;28;20491;-58
2021/05/30 05:30:30;;;;;;;40.80;22.77;;;10.10;99.90;;;;;;5014690;28;20419;-59
2021/05/30 05:33:00;;;;;;;37.58;23.02;;;10.20;99.90;;;;;;5033044;28;20064;-59
2021/05/30 05:35:27;;;;;;;34.50;21.55;;;10.30;99.90;;;;;;5025193;28;20407;-54
2021/05/30 05:37:53;;;;;;;35.63;21.50;;;10.40;99.90;;;;;;5031922;28;20017;-60
2021/05/30 05:40:19;;;;;;;33.83;19.52;;;10.50;99.90;;;;;;5031897;28;20043;-58
2021/05/30 05:42:45;;;;;;;29.27;17.45;;;10.60;99.90;;;;;;5031604;28;20391;-57
2021/05/30 05:45:11;;;;;;;30.85;19.33;;;10.70;99.90;;;;;;5032314;28;20410;-58
2021/05/30 05:47:37;;;;;;;31.52;19.13;;;10.80;99.90;;;;;;5031242;28;20527;-60
2021/05/30 05:50:03;;;;;;;28.17;16.95;;;10.90;99.90;;;;;;5032822;28;20057;-58
2021/05/30 05:52:29;;;;;;;27.42;17.48;;;10.90;99.90;;;;;;5031942;28;20109;-59
2021/05/30 05:54:55;;;;;;;26.33;15.25;;;11.00;99.90;;;;;;5030513;28;20033;-60
2021/05/30 05:57:20;;;;;;;24.20;15.10;;;11.10;99.90;;;;;;5032602;28;20033;-56
2021/05/30 05:59:46;;;;;;;26.48;14.95;;;11.10;99.90;;;;;;5033207;28;20404;-58
2021/05/30 06:02:12;;;;;;;25.67;14.02;;;11.20;99.90;;;;;;5025478;28;20029;-59
2021/05/30 06:04:38;;;;;;;21.75;13.25;;;11.30;99.90;;;;;;5032207;28;20053;-58
2021/05/30 06:07:04;;;;;;;21.15;13.45;;;11.40;99.90;;;;;;5015044;28;20465;-60
2021/05/30 06:09:29;;;;;;;20.00;12.60;;;11.50;99.90;;;;;;5030793;28;20467;-58
2021/05/30 06:11:55;;;;;;;21.52;12.98;;;11.60;99.90;;;;;;5028334;28;20087;-56
2021/05/30 06:14:20;;;;;;;19.88;12.63;;;11.60;99.90;;;;;;5031293;28;20021;-58
2021/05/30 06:16:46;;;;;;;21.48;13.00;;;11.70;99.90;;;;;;5030936;28;20025;-58
2021/05/30 06:19:11;;;;;;;16.83;11.95;;;11.80;99.90;;;;;;5031306;28;20067;-58
2021/05/30 06:21:38;;;;;;;21.20;11.93;;;11.80;99.90;;;;;;5031485;28;20029;-58
2021/05/30 06:24:04;;;;;;;21.15;12.48;;;11.90;99.90;;;;;;5031062;28;20113;-60
2021/05/30 06:26:30;;;;;;;25.83;13.02;;;12.00;99.90;;;;;;5031086;28;20100;-58
2021/05/30 06:28:55;;;;;;;22.95;13.55;;;12.10;99.90;;;;;;5012995;28;20552;-58
2021/05/30 06:31:23;;;;;;;20.65;11.30;;;12.20;99.90;;;;;;5031505;28;20506;-58
2021/05/30 06:33:48;;;;;;;22.83;11.95;;;12.20;99.90;;;;;;5028910;28;20029;-59
2021/05/30 06:36:15;;;;;;;21.38;10.57;;;12.30;99.90;;;;;;5028706;28;20107;-57
2021/05/30 06:38:40;;;;;;;22.45;10.35;;;12.40;99.90;;;;;;5030069;28;20432;-56
2021/05/30 06:41:06;;;;;;;17.48;11.05;;;12.40;99.90;;;;;;5030743;28;20033;-59
2021/05/30 06:43:31;;;;;;;16.83;9.90;;;12.50;99.90;;;;;;5029503;28;20045;-58
2021/05/30 06:45:57;;;;;;;19.20;11.48;;;12.60;99.90;;;;;;5030454;28;20502;-59
2021/05/30 06:48:22;;;;;;;18.05;10.45;;;12.60;99.90;;;;;;5030680;28;20041;-55
2021/05/30 06:51:12;;;;;;;18.15;11.00;;;12.70;99.90;;;;;;5030812;28;20037;-55
2021/05/30 06:53:34;;;;;;;17.17;10.93;;;12.80;99.90;;;;;;5029390;28;20056;-58
2021/05/30 06:55:59;;;;;;;17.52;10.05;;;12.90;99.90;;;;;;5028679;28;20530;-59
2021/05/30 06:58:25;;;;;;;17.75;11.00;;;12.90;99.90;;;;;;5029849;28;20029;-57
2021/05/30 07:00:50;;;;;;;17.40;10.48;;;12.90;99.90;;;;;;5028901;28;20026;-58
2021/05/30 07:03:16;;;;;;;18.42;11.52;;;13.00;99.90;;;;;;5030414;28;20034;-59
2021/05/30 07:05:42;;;;;;;22.35;11.13;;;13.10;99.90;;;;;;5029712;28;20029;-57
2021/05/30 07:08:07;;;;;;;16.55;9.55;;;13.20;99.90;;;;;;5030174;28;20037;-58
2021/05/30 07:10:33;;;;;;;19.60;10.68;;;13.20;99.90;;;;;;5030154;28;20524;-60
2021/05/30 07:12:59;;;;;;;17.88;9.90;;;13.30;99.90;;;;;;5029015;28;20037;-59
2021/05/30 07:15:24;;;;;;;13.93;9.68;;;13.40;99.90;;;;;;5028926;28;20030;-58
2021/05/30 07:17:50;;;;;;;16.95;9.32;;;13.50;99.90;;;;;;5029502;28;20119;-59
2021/05/30 07:20:16;;;;;;;18.65;9.93;;;13.60;99.90;;;;;;5030130;28;20033;-61
2021/05/30 07:22:42;;;;;;;16.98;10.38;;;13.60;99.90;;;;;;5028963;28;20021;-60
2021/05/30 07:25:08;;;;;;;23.20;10.75;;;13.70;99.90;;;;;;5030198;28;20018;-60
2021/05/30 07:27:33;;;;;;;20.52;9.65;;;13.70;99.90;;;;;;5028579;28;20537;-59
2021/05/30 07:29:59;;;;;;;19.60;9.57;;;13.80;99.90;;;;;;5028107;28;20025;-56
2021/05/30 07:32:24;;;;;;;19.30;10.30;;;13.90;99.90;;;;;;5029442;28;20559;-58
2021/05/30 07:34:50;;;;;;;17.75;9.85;;;14.00;99.90;;;;;;5026912;28;20037;-60
2021/05/30 07:37:16;;;;;;;16.67;10.00;;;14.10;99.90;;;;;;5029788;28;20033;-60
2021/05/30 07:39:41;;;;;;;12.85;8.85;;;14.10;99.90;;;;;;5029427;28;20037;-58
2021/05/30 07:42:08;;;;;;;12.93;8.93;;;14.10;99.90;;;;;;5029363;28;20065;-60
2021/05/30 07:44:34;;;;;;;15.50;8.63;;;14.20;99.90;;;;;;5029365;28;20029;-60
2021/05/30 07:47:00;;;;;;;16.00;9.68;;;14.30;99.90;;;;;;5029858;28;20029;-59
2021/05/30 07:49:25;;;;;;;17.95;8.05;;;14.30;99.90;;;;;;5029763;28;20060;-58
2021/05/30 07:51:51;;;;;;;11.93;8.43;;;14.40;99.90;;;;;;5023686;28;20053;-60
2021/05/30 07:54:17;;;;;;;19.40;8.93;;;14.50;99.90;;;;;;5029692;28;20022;-60
2021/05/30 07:56:43;;;;;;;12.57;7.07;;;14.60;99.90;;;;;;5029699;28;20029;-60
2021/05/30 07:59:10;;;;;;;13.95;8.00;;;14.70;99.90;;;;;;5028771;28;20499;-59
2021/05/30 08:01:36;;;;;;;13.95;8.25;;;14.70;99.90;;;;;;5029658;28;20036;-60
2021/05/30 08:04:01;;;;;;;11.52;7.60;;;14.80;99.90;;;;;;5028356;28;20026;-60
2021/05/30 08:06:30;;;;;;;13.93;8.05;;;14.80;99.90;;;;;;5029459;28;20395;-58
2021/05/30 08:08:57;;;;;;;10.40;7.22;;;14.90;99.90;;;;;;5025000;28;20034;-59
2021/05/30 08:11:23;;;;;;;11.70;7.50;;;15.00;99.90;;;;;;5028932;28;20068;-59
2021/05/30 08:13:48;;;;;;;12.05;7.63;;;15.00;99.90;;;;;;5029087;28;20057;-60
2021/05/30 08:16:14;;;;;;;11.63;7.57;;;15.10;99.90;;;;;;5028788;28;20048;-59
2021/05/30 08:18:39;;;;;;;13.48;6.97;;;15.20;99.90;;;;;;5029030;28;20539;-60
2021/05/30 08:21:05;;;;;;;13.57;7.05;;;15.30;99.90;;;;;;5028141;28;20391;-60
2021/05/30 08:23:31;;;;;;;12.68;6.60;;;15.40;99.90;;;;;;5028119;28;20013;-60
2021/05/30 08:25:56;;;;;;;11.45;6.32;;;15.60;99.90;;;;;;5028936;28;20025;-60
2021/05/30 08:28:22;;;;;;;14.45;7.20;;;15.70;99.90;;;;;;5029490;28;20426;-60
2021/05/30 08:30:48;;;;;;;11.30;6.43;;;15.80;99.90;;;;;;5027425;28;20037;-60
2021/05/30 08:33:13;;;;;;;8.85;6.68;;;15.70;99.90;;;;;;5022772;28;20594;-60
2021/05/30 08:35:39;;;;;;;9.85;6.72;;;15.90;99.90;;;;;;5022121;28;20029;-60
2021/05/30 08:38:04;;;;;;;9.65;6.35;;;16.00;99.90;;;;;;5021015;28;20035;-59
2021/05/30 08:40:30;;;;;;;9.57;6.32;;;16.10;99.90;;;;;;5020731;28;20033;-61
2021/05/30 08:42:55;;;;;;;11.75;5.47;;;16.20;99.90;;;;;;5024967;28;20486;-60
2021/05/30 08:45:21;;;;;;;7.32;4.78;;;16.30;99.90;;;;;;5026341;28;20498;-60
2021/05/30 08:47:47;;;;;;;6.65;4.45;;;16.40;99.90;;;;;;5028632;28;20053;-61
2021/05/30 08:50:14;;;;;;;7.93;5.03;;;16.50;99.90;;;;;;5026837;28;20176;-60
2021/05/30 08:52:41;;;;;;;9.52;5.38;;;16.60;99.90;;;;;;5028823;28;20569;-61
2021/05/30 08:55:07;;;;;;;7.68;4.93;;;16.80;99.90;;;;;;5028709;28;20036;-59
2021/05/30 08:57:33;;;;;;;8.02;4.43;;;16.80;99.90;;;;;;5031168;28;20549;-61
2021/05/30 08:59:58;;;;;;;6.70;4.18;;;16.90;99.90;;;;;;5032940;28;20124;-61
2021/05/30 09:02:25;;;;;;;6.22;4.40;;;17.00;99.90;;;;;;5032329;28;20026;-61
2021/05/30 09:04:56;;;;;;;5.13;3.35;;;17.10;99.90;;;;;;5032616;28;20029;-60
2021/05/30 09:07:41;;;;;;;9.85;3.92;;;17.20;99.90;;;;;;5030928;28;20460;-61
2021/05/30 09:10:12;;;;;;;4.18;3.05;;;17.20;99.90;;;;;;5030624;28;20049;-61
2021/05/30 09:12:38;;;;;;;3.83;3.42;;;17.30;99.90;;;;;;5031979;28;20071;-61
2021/05/30 09:15:14;;;;;;;5.50;3.72;;;17.40;99.90;;;;;;5028328;28;20056;-61
2021/05/30 09:17:39;;;;;;;9.57;3.97;;;17.60;99.90;;;;;;5041024;28;20033;-61
2021/05/30 09:20:07;;;;;;;6.35;3.63;;;17.70;99.90;;;;;;5033023;28;20037;-61
2021/05/30 09:22:32;;;;;;;6.15;3.85;;;17.80;99.90;;;;;;5032280;28;20021;-61
2021/05/30 09:25:09;;;;;;;6.30;3.63;;;18.00;99.90;;;;;;5014444;28;20475;-60
2021/05/30 09:27:41;;;;;;;7.47;4.05;;;18.10;99.90;;;;;;5032711;28;20033;-60
2021/05/30 09:30:21;;;;;;;7.82;4.03;;;18.30;99.90;;;;;;5030463;28;20566;-60
2021/05/30 09:32:57;;;;;;;7.68;3.85;;;18.40;99.90;;;;;;5032156;28;20080;-61
2021/05/30 09:38:04;;;;;;;2.65;2.45;;;18.80;99.90;;;;;;5063757;28;20084;-62
2021/05/30 09:40:38;;;;;;;4.03;2.45;;;18.70;99.90;;;;;;5057711;28;20021;-60
2021/05/30 09:43:13;;;;;;;6.22;2.85;;;18.80;99.90;;;;;;5039709;28;20028;-60
2021/05/30 09:45:40;;;;;;;5.18;2.60;;;19.10;98.70;;;;;;5060244;28;20043;-61
2021/05/30 09:48:21;;;;;;;4.50;2.67;;;19.30;99.90;;;;;;5047490;28;20066;-58
2021/05/30 09:51:07;;;;;;;6.05;3.20;;;19.50;99.30;;;;;;5054412;28;20039;-62
2021/05/30 09:53:34;;;;;;;4.22;3.15;;;19.80;99.90;;;;;;5046211;28;20018;-57
2021/05/30 09:56:00;;;;;;;6.00;2.83;;;19.70;96.50;;;;;;5050904;28;20028;-59
2021/05/30 09:58:26;;;;;;;5.13;2.85;;;19.80;99.90;;;;;;5049450;28;20444;-61
2021/05/30 10:00:51;;;;;;;3.63;3.05;;;20.10;99.10;;;;;;5049486;28;20036;-62
2021/05/30 10:03:20;;;;;;;3.85;2.80;;;20.40;98.70;;;;;;5050437;28;20029;-59
2021/05/30 10:05:46;;;;;;;4.70;2.90;;;20.50;99.90;;;;;;5051084;28;20116;-60
2021/05/30 10:08:12;;;;;;;3.38;3.00;;;20.50;99.30;;;;;;5050501;28;20021;-62
2021/05/30 10:10:37;;;;;;;7.85;2.95;;;20.70;96.20;;;;;;5054776;28;20362;-59
2021/05/30 10:13:03;;;;;;;4.05;2.80;;;20.90;94.80;;;;;;5050741;28;20036;-59
2021/05/30 10:15:30;;;;;;;5.97;3.05;;;20.80;93.70;;;;;;5044611;28;20547;-58
2021/05/30 10:18:01;;;;;;;4.40;3.03;;;20.80;95.20;;;;;;5043768;28;20025;-57
2021/05/30 10:20:27;;;;;;;7.28;3.00;;;21.00;95.90;;;;;;5047196;28;20028;-61
2021/05/30 10:22:56;;;;;;;2.92;2.55;;;21.20;95.70;;;;;;5048419;28;20814;-59
2021/05/30 10:25:30;;;;;;;4.18;2.70;;;21.70;95.70;;;;;;5049088;28;20017;-59
2021/05/30 10:31:36;;;;;;;4.90;2.80;;;22.00;91.00;;;;;;5070969;28;20852;-59
2021/05/30 10:34:14;;;;;;;3.58;2.83;;;22.10;91.50;;;;;;5077819;28;20063;-60
2021/05/30 10:36:54;;;;;;;5.55;2.90;;;22.30;93.70;;;;;;5083523;28;20030;-60
2021/05/30 10:39:29;;;;;;;4.60;2.72;;;22.50;92.10;;;;;;5075987;28;20036;-59
2021/05/30 10:42:12;;;;;;;4.88;2.50;;;22.40;89.50;;;;;;5074806;28;20136;-59
2021/05/30 10:45:05;;;;;;;3.75;2.42;;;22.40;88.10;;;;;;5082557;28;20031;-60
2021/05/30 10:47:43;;;;;;;4.57;2.80;;;22.80;87.50;;;;;;5070368;28;20047;-61
2021/05/30 10:50:14;;;;;;;3.88;3.03;;;22.90;86.00;;;;;;5074920;28;20446;-59
2021/05/30 10:52:42;;;;;;;2.95;2.10;;;22.90;82.90;;;;;;5081781;28;20047;-59
2021/05/30 10:55:28;;;;;;;2.70;2.10;;;22.70;80.50;;;;;;5075507;28;20024;-61
2021/05/30 10:57:53;;;;;;;4.13;2.85;;;22.40;85.20;;;;;;5081092;28;20031;-61
2021/05/30 11:00:22;;;;;;;4.22;3.03;;;22.40;80.90;;;;;;5078093;28;20025;-61
2021/05/30 11:03:06;;;;;;;2.70;2.22;;;22.70;86.80;;;;;;5074017;28;20521;-59
2021/05/30 11:05:51;;;;;;;3.22;2.65;;;22.90;84.40;;;;;;5078608;28;20025;-60
2021/05/30 11:08:29;;;;;;;4.22;2.95;;;23.40;81.50;;;;;;5075946;28;20029;-61
2021/05/30 11:11:26;;;;;;;2.97;2.47;;;23.20;82.70;;;;;;5073590;28;20059;-57
2021/05/30 11:13:55;;;;;;;4.65;3.10;;;23.20;77.60;;;;;;5073489;28;20128;-61
2021/05/30 11:16:24;;;;;;;6.70;2.78;;;23.40;82.10;;;;;;5077722;28;20031;-60
2021/05/30 11:19:02;;;;;;;4.43;2.63;;;23.20;77.80;;;;;;5072597;28;20440;-59
2021/05/30 11:21:33;;;;;;;5.60;2.58;;;23.20;81.50;;;;;;5069503;28;20059;-59
2021/05/30 11:24:09;;;;;;;4.32;2.60;;;22.90;78.10;;;;;;5072734;28;20402;-62
2021/05/30 11:26:35;;;;;;;5.35;2.78;;;23.10;83.50;;;;;;5075955;28;20032;-60
2021/05/30 11:29:02;;;;;;;3.25;2.47;;;23.40;82.60;;;;;;5075571;28;20028;-61
2021/05/30 11:31:28;;;;;;;3.13;2.38;;;23.70;83.90;;;;;;5076813;28;20094;-60
2021/05/30 11:34:12;;;;;;;7.78;2.75;;;23.90;81.20;;;;;;5069925;28;20108;-60
2021/05/30 11:36:38;;;;;;;3.90;2.83;;;23.80;76.30;;;;;;5065788;28;20028;-59
2021/05/30 11:39:15;;;;;;;5.10;2.78;;;23.80;76.70;;;;;;5068907;28;20028;-63
2021/05/30 11:41:47;;;;;;;3.28;2.67;;;22.70;76.20;;;;;;5067457;28;20024;-61
2021/05/30 11:44:14;;;;;;;5.63;2.80;;;23.00;78.40;;;;;;5061576;28;20021;-61
2021/05/30 11:46:47;;;;;;;4.95;3.10;;;23.30;78.20;;;;;;5061439;28;20076;-59
2021/05/30 11:49:25;;;;;;;4.22;2.95;;;23.60;82.70;;;;;;5056507;28;20021;-61
2021/05/30 11:51:56;;;;;;;4.43;2.75;;;23.70;80.60;;;;;;5062130;28;20032;-60
2021/05/30 11:54:23;;;;;;;5.32;2.50;;;24.20;76.40;;;;;;5057710;28;20387;-60
2021/05/30 11:56:53;;;;;;;3.50;2.65;;;24.30;74.80;;;;;;5063013;28;20498;-59
2021/05/30 11:59:33;;;;;;;3.72;2.55;;;24.10;70.80;;;;;;5058149;28;20025;-58
2021/05/30 12:02:00;;;;;;;5.53;3.03;;;23.70;72.90;;;;;;5054596;28;20501;-59
2021/05/30 12:04:35;;;;;;;4.28;2.80;;;23.60;76.40;;;;;;5060880;28;20036;-59
2021/05/30 12:07:03;;;;;;;3.95;2.70;;;23.40;79.80;;;;;;5056855;28;20029;-60
2021/05/30 12:09:50;;;;;;;3.92;2.90;;;23.00;85.60;;;;;;5055699;28;20031;-60
2021/05/30 12:12:22;;;;;;;4.70;2.47;;;23.10;80.00;;;;;;5059139;28;20068;-58
2021/05/30 12:14:48;;;;;;;6.03;2.97;;;23.40;75.00;;;;;;5067190;28;20386;-62
2021/05/30 12:17:14;;;;;;;2.88;2.45;;;23.90;74.20;;;;;;5055751;28;20029;-60
2021/05/30 12:19:44;;;;;;;3.05;2.60;;;24.10;82.20;;;;;;5053312;28;20482;-59
2021/05/30 12:22:09;;;;;;;5.95;2.80;;;24.10;73.10;;;;;;5053700;28;20568;-61
2021/05/30 12:24:36;;;;;;;4.38;2.97;;;24.10;78.70;;;;;;5060548;28;20132;-61
2021/05/30 12:27:02;;;;;;;4.60;2.63;;;24.30;82.60;;;;;;5056707;28;20132;-60
2021/05/30 12:29:30;;;;;;;3.25;2.58;;;24.80;73.50;;;;;;5053223;28;20048;-61
2021/05/30 12:31:56;;;;;;;3.08;2.50;;;24.90;68.80;;;;;;5058172;28;20023;-61
2021/05/30 12:34:35;;;;;;;5.30;2.78;;;25.20;72.30;;;;;;5054757;28;20044;-60
2021/05/30 12:37:00;;;;;;;2.65;2.42;;;25.30;72.00;;;;;;5058890;28;20108;-60
2021/05/30 12:39:28;;;;;;;4.28;2.28;;;25.40;72.30;;;;;;5061474;28;20108;-59
2021/05/30 12:42:04;;;;;;;4.35;2.20;;;25.50;75.20;;;;;;5055185;28;20417;-60
2021/05/30 12:44:51;;;;;;;2.45;2.05;;;25.00;68.20;;;;;;5057490;28;20535;-60
2021/05/30 12:47:23;;;;;;;8.05;3.17;;;25.30;72.40;;;;;;5065194;28;20403;-60
2021/05/30 12:50:08;;;;;;;4.22;3.25;;;25.00;77.20;;;;;;5058640;28;20024;-60